Time;durP1;ratioP1;P1;durP2;ratioP2;P2;SDS_P1;SDS_P2;PMS_P1;PMS_P2;Temp;Humidity;BMP_temperature;BMP_pressure;BME280_temperature;BME280_humidity;BME280_pressure;Samples;Min_cycle;Max_cycle;Signal;HPM_P1;HPM_P2
2022/05/03 00:00:19;;;;;;;7.03;5.22;;;8.40;89.40;;;;;;5010529;28;20071;-32
2022/05/03 00:02:53;;;;;;;6.90;4.90;;;8.40;89.40;;;;;;5012034;28;20041;-32
2022/05/03 00:05:25;;;;;;;7.20;4.68;;;8.40;89.70;;;;;;5008464;28;20060;-32
2022/05/03 00:07:56;;;;;;;8.18;4.80;;;8.30;90.10;;;;;;5011511;28;20055;-32
2022/05/03 00:10:25;;;;;;;8.90;5.00;;;8.30;90.20;;;;;;5012131;28;20069;-32
2022/05/03 00:12:57;;;;;;;8.70;5.93;;;8.20;90.30;;;;;;5011358;28;20050;-32
2022/05/03 00:15:24;;;;;;;5.68;4.50;;;8.20;90.80;;;;;;5006720;28;20042;-32
2022/05/03 00:17:51;;;;;;;6.15;4.63;;;8.20;91.10;;;;;;5012043;28;20050;-33
2022/05/03 00:20:17;;;;;;;5.72;4.72;;;8.10;91.00;;;;;;5011248;28;20072;-33
2022/05/03 00:22:44;;;;;;;7.65;4.85;;;8.10;90.90;;;;;;5004473;28;20046;-33
2022/05/03 00:25:11;;;;;;;7.63;5.15;;;8.10;90.80;;;;;;5012133;28;20141;-33
2022/05/03 00:27:39;;;;;;;4.80;4.25;;;8.10;90.70;;;;;;5007641;28;20051;-32
2022/05/03 00:30:07;;;;;;;8.20;5.07;;;8.10;90.50;;;;;;5008988;28;20060;-32
2022/05/03 00:32:34;;;;;;;8.98;5.40;;;8.00;90.60;;;;;;5012313;28;20394;-33
2022/05/03 00:35:01;;;;;;;5.75;4.65;;;8.00;90.50;;;;;;5011414;28;20054;-32
2022/05/03 00:37:28;;;;;;;7.93;5.70;;;8.00;90.50;;;;;;5011107;28;20046;-33
2022/05/03 00:39:55;;;;;;;8.85;5.68;;;8.00;90.90;;;;;;5002434;28;20068;-32
2022/05/03 00:42:22;;;;;;;8.18;5.90;;;7.90;91.20;;;;;;5006917;28;20054;-33
2022/05/03 00:45:04;;;;;;;9.10;5.78;;;7.90;91.50;;;;;;5009092;28;20409;-33
2022/05/03 00:47:36;;;;;;;9.02;6.03;;;7.80;92.50;;;;;;5006247;28;20409;-33
2022/05/03 00:50:07;;;;;;;6.97;5.28;;;7.60;93.10;;;;;;5012492;28;20053;-33
2022/05/03 00:52:39;;;;;;;7.55;5.35;;;7.50;93.20;;;;;;5010617;28;20046;-33
2022/05/03 00:55:29;;;;;;;6.63;5.63;;;7.40;92.90;;;;;;5010621;28;20053;-34
2022/05/03 00:58:06;;;;;;;8.73;5.65;;;7.50;92.70;;;;;;5010494;28;20052;-33
2022/05/03 01:00:34;;;;;;;6.80;5.15;;;7.40;92.90;;;;;;5011682;28;20524;-33
2022/05/03 01:03:10;;;;;;;5.90;4.80;;;7.40;92.70;;;;;;5011185;28;20533;-33
2022/05/03 01:05:44;;;;;;;8.13;5.43;;;7.40;92.50;;;;;;5011170;28;20068;-33
2022/05/03 01:08:13;;;;;;;9.88;5.60;;;7.40;92.50;;;;;;5011044;28;20053;-33
2022/05/03 01:10:46;;;;;;;7.18;6.03;;;7.40;92.70;;;;;;5011886;28;20144;-33
2022/05/03 01:13:17;;;;;;;6.85;5.72;;;7.40;93.20;;;;;;5009807;28;20050;-33
2022/05/03 01:15:46;;;;;;;9.18;6.43;;;7.30;93.80;;;;;;5009385;28;20053;-33
2022/05/03 01:18:20;;;;;;;7.82;6.03;;;7.20;94.50;;;;;;5002370;28;20060;-33
2022/05/03 01:20:51;;;;;;;8.10;5.57;;;7.10;94.90;;;;;;5005214;28;20046;-33
2022/05/03 01:23:36;;;;;;;8.00;5.50;;;7.00;95.20;;;;;;5009988;28;20046;-33
2022/05/03 01:26:21;;;;;;;14.55;5.53;;;6.90;95.10;;;;;;5011670;28;20064;-33
2022/05/03 01:29:01;;;;;;;7.72;5.10;;;6.90;94.90;;;;;;5004101;28;20394;-33
2022/05/03 01:31:28;;;;;;;7.70;5.65;;;6.90;94.70;;;;;;5005560;28;20100;-33
2022/05/03 01:33:58;;;;;;;6.07;4.95;;;6.90;94.40;;;;;;5010368;28;20062;-33
2022/05/03 01:36:31;;;;;;;7.93;5.13;;;7.00;94.50;;;;;;5010105;28;20062;-33
2022/05/03 01:39:01;;;;;;;8.18;6.10;;;7.00;94.20;;;;;;5010705;28;20133;-33
2022/05/03 01:41:30;;;;;;;7.10;5.13;;;7.00;94.30;;;;;;5010313;28;20060;-33
2022/05/03 01:44:06;;;;;;;6.90;5.20;;;7.00;94.10;;;;;;5007139;28;20054;-33
2022/05/03 01:46:36;;;;;;;11.20;6.60;;;6.90;93.90;;;;;;5007468;28;20135;-33
2022/05/03 01:52:28;;;;;;;8.57;6.15;;;6.90;94.00;;;;;;5004162;28;20470;-33
2022/05/03 01:55:17;;;;;;;8.27;5.60;;;7.00;93.80;;;;;;4996186;28;20450;-33
2022/05/03 01:57:55;;;;;;;7.72;5.63;;;7.00;93.60;;;;;;5004430;28;20050;-33
2022/05/03 02:00:23;;;;;;;8.15;5.72;;;6.90;93.70;;;;;;5011521;28;20042;-33
2022/05/03 02:02:54;;;;;;;6.90;5.50;;;6.90;93.90;;;;;;5013752;28;20045;-33
2022/05/03 02:05:37;;;;;;;8.75;5.93;;;6.90;93.90;;;;;;5014676;28;20045;-33
2022/05/03 02:08:04;;;;;;;7.18;6.07;;;6.90;93.80;;;;;;5006359;28;20077;-33
2022/05/03 02:10:46;;;;;;;7.25;5.55;;;6.90;93.80;;;;;;5013436;28;20057;-33
2022/05/03 02:16:45;;;;;;;16.02;7.65;;;6.90;93.70;;;;;;4993734;28;20490;-32
2022/05/03 02:19:16;;;;;;;8.80;6.85;;;6.80;94.50;;;;;;5014186;28;20050;-33
2022/05/03 02:21:49;;;;;;;7.93;6.25;;;6.70;95.30;;;;;;5013236;28;20064;-33
2022/05/03 02:24:21;;;;;;;7.78;5.93;;;6.60;95.60;;;;;;5009301;28;20489;-33
2022/05/03 02:26:50;;;;;;;8.35;5.57;;;6.50;95.60;;;;;;5013776;28;20077;-33
2022/05/03 02:29:18;;;;;;;9.90;6.63;;;6.50;95.30;;;;;;5012964;28;20046;-33
2022/05/03 02:31:48;;;;;;;9.82;6.68;;;6.50;95.60;;;;;;5013458;28;20052;-33
2022/05/03 02:34:23;;;;;;;7.35;5.63;;;6.40;96.20;;;;;;5012422;28;20077;-33
2022/05/03 02:36:56;;;;;;;10.48;6.85;;;6.30;96.40;;;;;;5013819;28;20050;-33
2022/05/03 02:39:27;;;;;;;9.00;6.70;;;6.30;96.40;;;;;;5005918;28;20053;-33
2022/05/03 02:41:55;;;;;;;9.65;7.07;;;6.30;96.30;;;;;;5006466;28;20070;-33
2022/05/03 02:44:21;;;;;;;9.23;6.72;;;6.30;96.30;;;;;;5014452;28;20054;-33
2022/05/03 02:46:55;;;;;;;8.32;6.32;;;6.30;96.50;;;;;;5012172;28;20380;-33
2022/05/03 02:49:27;;;;;;;9.40;6.50;;;6.30;96.20;;;;;;5013962;28;20052;-33
2022/05/03 02:52:05;;;;;;;7.72;6.07;;;6.30;95.80;;;;;;5005974;28;20056;-33
2022/05/03 02:54:37;;;;;;;8.32;5.75;;;6.30;95.70;;;;;;5007637;28;20057;-33
2022/05/03 02:57:08;;;;;;;7.47;5.50;;;6.30;95.70;;;;;;5013383;28;20056;-33
2022/05/03 03:02:23;;;;;;;12.25;7.28;;;6.30;94.30;;;;;;5013377;28;19925;-33
2022/05/03 03:04:53;;;;;;;9.07;7.13;;;6.20;95.40;;;;;;5013725;28;20058;-32
2022/05/03 03:07:20;;;;;;;8.13;6.25;;;6.20;96.20;;;;;;5011353;28;20060;-32
2022/05/03 03:09:50;;;;;;;8.65;6.25;;;6.10;96.40;;;;;;5012182;28;20056;-32
2022/05/03 03:12:23;;;;;;;11.00;5.95;;;6.10;96.40;;;;;;5013520;28;20124;-33
2022/05/03 03:14:49;;;;;;;7.68;6.10;;;6.10;96.20;;;;;;5004456;28;20050;-33
2022/05/03 03:17:21;;;;;;;9.15;6.20;;;6.10;96.10;;;;;;5013321;28;20049;-33
2022/05/03 03:20:06;;;;;;;7.68;5.47;;;6.10;96.00;;;;;;5011850;28;21422;-32
2022/05/03 03:22:37;;;;;;;9.25;5.75;;;6.10;95.70;;;;;;5012137;28;20552;-33
2022/05/03 03:25:05;;;;;;;8.18;6.85;;;6.10;95.80;;;;;;5010937;28;20052;-32
2022/05/03 03:27:32;;;;;;;7.97;6.00;;;6.00;95.90;;;;;;5012600;28;20129;-32
2022/05/03 03:29:59;;;;;;;9.90;6.40;;;6.00;95.70;;;;;;5012101;28;20085;-32
2022/05/03 03:32:27;;;;;;;11.18;6.82;;;6.00;95.60;;;;;;5016367;28;20049;-32
2022/05/03 03:34:54;;;;;;;10.38;6.57;;;6.00;95.60;;;;;;5011675;28;20409;-32
2022/05/03 03:37:23;;;;;;;9.48;6.38;;;6.00;95.70;;;;;;5006453;28;20293;-32
2022/05/03 03:39:50;;;;;;;8.90;6.47;;;6.00;95.60;;;;;;5011514;28;20046;-32
2022/05/03 03:42:16;;;;;;;9.05;6.97;;;6.00;95.50;;;;;;5012171;28;20060;-32
2022/05/03 03:44:43;;;;;;;7.00;5.95;;;6.00;95.70;;;;;;5012815;28;20133;-32
2022/05/03 03:47:10;;;;;;;8.32;6.50;;;6.00;95.70;;;;;;5012263;28;20486;-33
2022/05/03 03:49:38;;;;;;;7.80;6.28;;;6.00;95.60;;;;;;5000754;28;20050;-33
2022/05/03 03:52:05;;;;;;;8.45;6.00;;;6.00;95.70;;;;;;5010213;28;20046;-33
2022/05/03 03:54:31;;;;;;;11.38;6.95;;;5.90;95.70;;;;;;5009302;28;20482;-33
2022/05/03 03:56:58;;;;;;;9.32;6.72;;;5.90;95.80;;;;;;5009609;28;20075;-33
2022/05/03 03:59:30;;;;;;;10.43;7.25;;;5.90;95.80;;;;;;5011330;28;20072;-33
2022/05/03 04:01:57;;;;;;;9.30;6.30;;;5.90;95.60;;;;;;5004155;28;20081;-33
2022/05/03 04:04:26;;;;;;;8.70;6.13;;;5.90;95.80;;;;;;5002265;28;20054;-32
2022/05/03 04:06:54;;;;;;;12.43;8.25;;;5.90;96.00;;;;;;5008472;28;20058;-32
2022/05/03 04:09:21;;;;;;;8.70;7.03;;;5.80;96.60;;;;;;5003981;28;20076;-33
2022/05/03 04:11:48;;;;;;;10.07;7.47;;;5.80;96.80;;;;;;5011905;28;20050;-34
2022/05/03 04:14:15;;;;;;;11.20;6.70;;;5.80;97.10;;;;;;5011049;28;20062;-42
2022/05/03 04:16:42;;;;;;;10.82;6.32;;;5.70;97.40;;;;;;5009756;28;20049;-43
2022/05/03 04:19:09;;;;;;;8.38;6.47;;;5.80;97.40;;;;;;5011002;28;20054;-42
2022/05/03 04:21:36;;;;;;;9.52;6.72;;;5.80;97.30;;;;;;5009381;28;20129;-41
2022/05/03 04:24:04;;;;;;;7.90;6.57;;;5.80;97.20;;;;;;5011516;28;20046;-42
2022/05/03 04:26:31;;;;;;;9.65;7.03;;;5.80;97.30;;;;;;5011584;28;20405;-43
2022/05/03 04:28:58;;;;;;;10.10;7.38;;;5.90;97.30;;;;;;5011197;28;20475;-43
2022/05/03 04:31:26;;;;;;;13.50;8.55;;;5.90;97.30;;;;;;5003968;28;20046;-42
2022/05/03 04:33:53;;;;;;;12.45;8.15;;;6.00;97.80;;;;;;5003686;28;20045;-43
2022/05/03 04:36:19;;;;;;;9.10;7.20;;;6.00;98.10;;;;;;5011749;28;20056;-42
2022/05/03 04:38:46;;;;;;;10.18;7.45;;;6.10;98.10;;;;;;5005262;28;20125;-42
2022/05/03 04:41:14;;;;;;;14.80;10.60;;;6.10;97.90;;;;;;5013159;28;20060;-43
2022/05/03 04:43:41;;;;;;;11.93;9.10;;;6.20;98.30;;;;;;5011928;28;20417;-44
2022/05/03 04:46:07;;;;;;;10.23;7.72;;;6.20;98.40;;;;;;5012686;28;20052;-43
2022/05/03 04:48:34;;;;;;;13.30;9.10;;;6.30;98.50;;;;;;5012301;28;20056;-43
2022/05/03 04:51:01;;;;;;;11.30;9.32;;;6.40;98.40;;;;;;4991004;28;20042;-43
2022/05/03 04:53:27;;;;;;;12.70;9.93;;;6.40;98.40;;;;;;5012426;28;20402;-43
2022/05/03 04:55:54;;;;;;;13.48;9.57;;;6.50;98.70;;;;;;5010852;28;20145;-43
2022/05/03 04:58:22;;;;;;;15.20;10.75;;;6.50;98.90;;;;;;5011779;28;20050;-43
2022/05/03 05:00:49;;;;;;;12.23;9.02;;;6.60;99.50;;;;;;5009366;28;20046;-42
2022/05/03 05:03:16;;;;;;;12.57;8.95;;;6.60;99.00;;;;;;4994117;28;20068;-42
2022/05/03 05:05:42;;;;;;;13.50;9.68;;;6.70;98.80;;;;;;5009862;28;20056;-42
2022/05/03 05:08:09;;;;;;;14.43;11.15;;;6.70;98.80;;;;;;4991234;28;20057;-42
2022/05/03 05:10:36;;;;;;;13.60;9.75;;;6.70;99.20;;;;;;5007002;28;20049;-42
2022/05/03 05:13:03;;;;;;;9.18;8.18;;;6.80;99.50;;;;;;5012249;28;20057;-42
2022/05/03 05:15:31;;;;;;;9.98;8.00;;;6.90;99.20;;;;;;4994283;28;20049;-42
2022/05/03 05:17:58;;;;;;;14.10;10.68;;;6.90;99.00;;;;;;4993751;28;20058;-43
2022/05/03 05:20:25;;;;;;;12.98;10.30;;;6.90;99.20;;;;;;4990198;28;20483;-42
2022/05/03 05:22:52;;;;;;;15.73;8.82;;;7.00;99.40;;;;;;4994280;28;20038;-41
2022/05/03 05:25:19;;;;;;;11.45;8.95;;;7.10;99.20;;;;;;5011775;28;20049;-43
2022/05/03 05:27:46;;;;;;;16.40;11.05;;;7.20;99.00;;;;;;5013945;28;20413;-42
2022/05/03 05:30:13;;;;;;;13.48;10.52;;;7.20;99.30;;;;;;5010941;28;20048;-42
2022/05/03 05:32:41;;;;;;;17.35;12.88;;;7.30;99.40;;;;;;5014100;28;20165;-42
2022/05/03 05:35:08;;;;;;;17.02;11.90;;;7.30;99.90;;;;;;5015942;28;20565;-42
2022/05/03 05:37:35;;;;;;;15.68;11.00;;;7.40;99.90;;;;;;5018256;28;20057;-43
2022/05/03 05:40:02;;;;;;;21.60;14.82;;;7.50;99.90;;;;;;5014046;28;20213;-43
2022/05/03 05:42:28;;;;;;;20.25;15.27;;;7.60;99.90;;;;;;5013541;28;20516;-43
2022/05/03 05:44:55;;;;;;;24.38;16.67;;;7.60;99.90;;;;;;5013892;28;20494;-43
2022/05/03 05:47:22;;;;;;;26.73;17.35;;;7.70;99.90;;;;;;5012865;28;20054;-42
2022/05/03 05:49:50;;;;;;;22.35;16.38;;;7.80;99.90;;;;;;5012849;28;20445;-41
2022/05/03 05:55:01;;;;;;;31.05;17.48;;;7.90;99.90;;;;;;5014917;28;20069;-43
2022/05/03 05:57:27;;;;;;;23.55;17.88;;;8.00;99.90;;;;;;5011980;28;20054;-43
2022/05/03 05:59:54;;;;;;;28.58;19.52;;;8.10;99.90;;;;;;5012433;28;20056;-43
2022/05/03 06:02:21;;;;;;;27.10;17.13;;;8.10;99.90;;;;;;5012631;28;20133;-43
2022/05/03 06:04:47;;;;;;;27.25;19.33;;;8.20;99.90;;;;;;5004648;28;20058;-42
2022/05/03 06:07:15;;;;;;;28.92;19.33;;;8.30;99.90;;;;;;5014187;28;20060;-44
2022/05/03 06:09:43;;;;;;;24.25;16.60;;;8.30;99.90;;;;;;5012386;28;20050;-43
2022/05/03 06:12:10;;;;;;;26.00;17.33;;;8.40;99.90;;;;;;5011382;28;20096;-44
2022/05/03 06:14:37;;;;;;;29.92;20.52;;;8.50;99.90;;;;;;5012944;28;20046;-43
2022/05/03 06:17:04;;;;;;;25.40;18.85;;;8.60;99.90;;;;;;5010664;28;20498;-43
2022/05/03 06:19:31;;;;;;;30.77;18.95;;;8.60;99.90;;;;;;5008937;28;20049;-43
2022/05/03 06:21:57;;;;;;;32.83;21.95;;;8.70;99.90;;;;;;5012624;28;20049;-42
2022/05/03 06:24:26;;;;;;;36.65;23.33;;;8.80;99.90;;;;;;5007854;28;20497;-42
2022/05/03 06:26:53;;;;;;;35.53;23.15;;;8.80;99.90;;;;;;5012480;28;20046;-43
2022/05/03 06:29:20;;;;;;;28.90;21.17;;;8.90;99.90;;;;;;5014188;28;20050;-43
2022/05/03 06:31:48;;;;;;;32.45;23.00;;;8.90;99.90;;;;;;5009590;28;20482;-42
2022/05/03 06:34:14;;;;;;;29.85;21.55;;;9.00;99.90;;;;;;5009766;28;20104;-43
2022/05/03 06:36:41;;;;;;;31.13;22.67;;;9.00;99.90;;;;;;5006592;28;20104;-42
2022/05/03 06:39:08;;;;;;;34.22;22.95;;;9.00;99.90;;;;;;5011765;28;20056;-42
2022/05/03 06:41:36;;;;;;;33.33;23.30;;;9.20;99.90;;;;;;5012994;28;20486;-42
2022/05/03 06:44:03;;;;;;;35.55;23.58;;;9.20;99.90;;;;;;5009462;28;20046;-43
2022/05/03 06:46:29;;;;;;;32.58;22.05;;;9.20;99.90;;;;;;5010509;28;20140;-42
2022/05/03 06:48:56;;;;;;;29.88;21.40;;;9.30;99.90;;;;;;5005898;28;20058;-42
2022/05/03 06:51:23;;;;;;;38.88;22.98;;;9.30;99.90;;;;;;5013167;28;20458;-42
2022/05/03 06:53:49;;;;;;;33.25;21.58;;;9.40;99.90;;;;;;5012628;28;20050;-42
2022/05/03 06:56:16;;;;;;;37.78;23.90;;;9.40;99.90;;;;;;5013451;28;20049;-42
2022/05/03 06:58:45;;;;;;;34.92;23.00;;;9.40;99.90;;;;;;5006902;28;20485;-43
2022/05/03 07:01:12;;;;;;;38.58;24.90;;;9.50;99.90;;;;;;5004760;28;20522;-43
2022/05/03 07:03:39;;;;;;;34.70;22.13;;;9.60;99.90;;;;;;5011673;28;20050;-42
2022/05/03 07:06:05;;;;;;;37.38;24.38;;;9.60;99.90;;;;;;5013528;28;20049;-42
2022/05/03 07:08:32;;;;;;;39.05;24.63;;;9.50;99.90;;;;;;5013604;28;20042;-44
2022/05/03 07:10:59;;;;;;;40.00;25.17;;;9.60;99.90;;;;;;5012503;28;20487;-43
2022/05/03 07:13:26;;;;;;;44.63;23.90;;;9.70;99.90;;;;;;5013709;28;20085;-43
2022/05/03 07:15:54;;;;;;;45.10;24.88;;;9.70;99.90;;;;;;5006664;28;20418;-43
2022/05/03 07:23:49;;;;;;;84.45;34.22;;;9.80;99.90;;;;;;5011217;28;20050;-43
2022/05/03 07:26:15;;;;;;;90.70;36.75;;;9.90;99.90;;;;;;5011930;28;20048;-42
2022/05/03 07:28:42;;;;;;;80.45;31.75;;;9.90;99.90;;;;;;5012826;28;20042;-42
2022/05/03 07:31:10;;;;;;;92.00;34.22;;;9.90;99.90;;;;;;5013125;28;20053;-43
2022/05/03 07:33:37;;;;;;;84.25;34.67;;;9.90;99.90;;;;;;5011915;28;20045;-42
2022/05/03 07:36:04;;;;;;;81.20;33.25;;;10.00;99.90;;;;;;5012612;28;20046;-42
2022/05/03 07:38:30;;;;;;;82.13;33.83;;;10.10;99.90;;;;;;5011366;28;20054;-42
2022/05/03 07:40:57;;;;;;;87.75;35.25;;;10.10;99.90;;;;;;5012860;28;20061;-43
2022/05/03 07:43:24;;;;;;;76.75;34.33;;;10.20;99.90;;;;;;5011843;28;20526;-42
2022/05/03 07:45:51;;;;;;;82.95;34.72;;;10.20;99.90;;;;;;5012678;28;20054;-42
2022/05/03 07:48:19;;;;;;;97.65;37.67;;;10.30;99.90;;;;;;5010048;28;20054;-42
2022/05/03 07:50:45;;;;;;;95.07;37.80;;;10.30;99.90;;;;;;5012791;28;20042;-43
2022/05/03 07:53:12;;;;;;;84.38;35.35;;;10.30;99.90;;;;;;5009963;28;20414;-43
2022/05/03 07:55:39;;;;;;;86.53;35.28;;;10.40;99.90;;;;;;5010858;28;20050;-43
2022/05/03 07:58:05;;;;;;;71.32;33.45;;;10.40;99.90;;;;;;5010624;28;20060;-43
2022/05/03 08:00:32;;;;;;;71.07;35.53;;;10.40;99.90;;;;;;5011197;28;20042;-43
2022/05/03 08:02:59;;;;;;;66.50;31.42;;;10.40;99.90;;;;;;5013036;28;20049;-43
2022/05/03 08:05:27;;;;;;;62.80;30.80;;;10.30;99.90;;;;;;5011727;28;20053;-43
2022/05/03 08:07:54;;;;;;;65.03;33.72;;;10.30;99.90;;;;;;5002333;28;20050;-43
2022/05/03 08:10:20;;;;;;;59.63;30.08;;;10.30;99.90;;;;;;5003735;28;20486;-42
2022/05/03 08:12:51;;;;;;;58.97;29.95;;;10.30;99.90;;;;;;5012087;28;20088;-42
2022/05/03 08:15:18;;;;;;;58.17;32.28;;;10.40;99.90;;;;;;5010462;28;20100;-42
2022/05/03 08:17:44;;;;;;;56.13;28.85;;;10.40;99.90;;;;;;5012475;28;20045;-42
2022/05/03 08:20:13;;;;;;;49.05;26.30;;;10.40;99.90;;;;;;4998050;28;20140;-43
2022/05/03 08:22:41;;;;;;;54.20;25.80;;;10.50;99.90;;;;;;5008600;28;20037;-43
2022/05/03 08:25:08;;;;;;;39.00;23.85;;;10.50;99.90;;;;;;5008296;28;20415;-43
2022/05/03 08:27:38;;;;;;;43.60;19.33;;;10.50;99.90;;;;;;5012204;28;20042;-43
2022/05/03 08:30:06;;;;;;;24.20;12.90;;;10.50;99.90;;;;;;5011796;28;20133;-42
2022/05/03 08:32:32;;;;;;;22.67;10.65;;;10.50;99.90;;;;;;5001959;28;20060;-43
2022/05/03 08:34:59;;;;;;;20.50;9.13;;;10.50;99.90;;;;;;5011880;28;20057;-43
2022/05/03 08:42:56;;;;;;;17.45;6.07;;;10.60;99.90;;;;;;5005842;28;20061;-42
2022/05/03 08:45:24;;;;;;;14.48;6.18;;;10.60;99.90;;;;;;5011070;28;20045;-43
2022/05/03 08:47:51;;;;;;;14.50;6.15;;;10.70;99.90;;;;;;5012580;28;20077;-42
2022/05/03 08:50:19;;;;;;;17.17;6.28;;;10.80;99.90;;;;;;5011761;28;20513;-42
2022/05/03 08:52:48;;;;;;;16.70;6.22;;;10.80;99.90;;;;;;5043130;28;20054;-42
2022/05/03 08:55:17;;;;;;;16.77;6.50;;;10.90;99.90;;;;;;5011986;28;20076;-42
2022/05/03 08:57:44;;;;;;;15.45;6.35;;;11.00;99.90;;;;;;5009295;28;20052;-42
2022/05/03 09:00:12;;;;;;;14.52;6.68;;;11.00;99.90;;;;;;5010992;28;20041;-42
2022/05/03 09:02:42;;;;;;;17.90;7.32;;;11.10;99.90;;;;;;5009298;28;20100;-43
2022/05/03 09:05:10;;;;;;;18.88;6.53;;;11.20;99.90;;;;;;5011937;28;20060;-43
2022/05/03 09:07:37;;;;;;;17.98;6.53;;;11.20;99.90;;;;;;5013462;28;20042;-43
2022/05/03 09:10:18;;;;;;;13.98;6.88;;;11.30;99.90;;;;;;5013732;28;20053;-43
2022/05/03 09:12:45;;;;;;;18.90;7.50;;;11.30;99.90;;;;;;5012755;28;20510;-43
2022/05/03 09:15:12;;;;;;;13.15;7.03;;;11.20;99.90;;;;;;5008360;28;20503;-42
2022/05/03 09:17:41;;;;;;;16.77;7.47;;;11.20;99.90;;;;;;5013441;28;20045;-43
2022/05/03 09:25:48;;;;;;;20.08;7.57;;;11.10;99.90;;;;;;5011822;28;20057;-41
2022/05/03 09:28:15;;;;;;;14.45;7.18;;;11.10;99.90;;;;;;5016212;28;20376;-42
2022/05/03 09:30:46;;;;;;;26.30;8.57;;;11.10;99.90;;;;;;5013459;28;20050;-42
2022/05/03 09:33:17;;;;;;;25.98;8.23;;;11.10;99.90;;;;;;5014918;28;20129;-42
2022/05/03 09:35:43;;;;;;;22.30;8.15;;;11.10;99.90;;;;;;5010508;28;20046;-43
2022/05/03 09:38:10;;;;;;;25.10;8.98;;;11.10;99.90;;;;;;5014084;28;20133;-43
2022/05/03 09:40:37;;;;;;;31.08;9.18;;;11.10;99.90;;;;;;5015791;28;20050;-43
2022/05/03 09:43:06;;;;;;;26.10;10.38;;;11.10;99.90;;;;;;5008040;28;20049;-42
2022/05/03 09:45:33;;;;;;;22.83;8.38;;;11.10;99.90;;;;;;5011671;28;20049;-42
2022/05/03 09:48:00;;;;;;;27.70;9.00;;;11.10;99.90;;;;;;5015411;28;20049;-42
2022/05/03 09:50:37;;;;;;;29.88;9.25;;;11.10;99.90;;;;;;5014644;28;20130;-43
2022/05/03 09:53:08;;;;;;;26.92;8.25;;;11.10;99.90;;;;;;5014533;28;20050;-42
2022/05/03 09:55:37;;;;;;;22.05;8.52;;;11.10;99.90;;;;;;5009283;28;20054;-42
2022/05/03 09:58:06;;;;;;;21.05;7.53;;;11.20;99.90;;;;;;5014148;28;20046;-42
2022/05/03 10:00:34;;;;;;;27.95;7.70;;;11.20;99.90;;;;;;5012673;28;20080;-42
2022/05/03 10:03:01;;;;;;;26.55;9.05;;;11.30;99.90;;;;;;5005442;28;20490;-43
2022/05/03 10:05:27;;;;;;;20.90;6.78;;;11.30;99.90;;;;;;5013938;28;20425;-42
2022/05/03 10:07:54;;;;;;;22.48;8.07;;;11.40;99.90;;;;;;5012871;28;20056;-42
2022/05/03 10:10:22;;;;;;;22.25;7.43;;;11.40;99.90;;;;;;5013945;28;20116;-42
2022/05/03 10:12:50;;;;;;;20.98;6.53;;;11.40;99.90;;;;;;5014988;28;20042;-43
2022/05/03 10:20:35;;;;;;;26.10;6.95;;;11.50;99.90;;;;;;5013244;28;20494;-43
2022/05/03 10:20:56;;;;;;;28.08;7.38;;;11.60;99.90;;;;;;4999625;28;20050;-42
2022/05/03 10:23:24;;;;;;;21.40;7.22;;;11.60;99.90;;;;;;5011504;28;20128;-43
2022/05/03 10:25:52;;;;;;;23.23;7.55;;;11.60;99.90;;;;;;5012921;28;20060;-43
2022/05/03 10:28:19;;;;;;;24.88;7.70;;;11.60;99.90;;;;;;5012496;28;20483;-42
2022/05/03 10:31:09;;;;;;;27.90;7.78;;;11.70;99.90;;;;;;5009461;28;20141;-42
2022/05/03 10:33:37;;;;;;;22.08;7.60;;;11.70;99.90;;;;;;5010966;28;20054;-42
2022/05/03 10:36:04;;;;;;;21.63;7.72;;;11.70;99.90;;;;;;5013311;28;20054;-42
2022/05/03 10:38:36;;;;;;;24.48;7.35;;;11.80;99.90;;;;;;5014325;28;20046;-42
2022/05/03 10:41:04;;;;;;;22.83;7.18;;;11.90;99.90;;;;;;5014368;28;20527;-43
2022/05/03 10:43:30;;;;;;;14.80;6.95;;;11.90;99.90;;;;;;5013104;28;20054;-42
2022/05/03 10:45:58;;;;;;;21.45;6.50;;;11.90;99.90;;;;;;5004451;28;20390;-42
2022/05/03 10:48:28;;;;;;;21.23;6.43;;;11.90;99.90;;;;;;5000922;28;20514;-42
2022/05/03 10:50:55;;;;;;;22.98;6.55;;;12.00;99.90;;;;;;5014137;28;20064;-43
2022/05/03 10:53:27;;;;;;;20.25;5.03;;;12.10;99.90;;;;;;5014324;28;20050;-43
2022/05/03 10:56:21;;;;;;;21.67;5.88;;;12.10;99.90;;;;;;5013121;28;20522;-43
2022/05/03 10:59:13;;;;;;;16.63;4.97;;;12.20;99.90;;;;;;5014361;28;20482;-44
2022/05/03 11:02:09;;;;;;;21.80;5.50;;;12.30;99.90;;;;;;5014432;28;20075;-42
2022/05/03 11:04:56;;;;;;;20.08;5.05;;;12.30;99.90;;;;;;5014190;28;20050;-42
2022/05/03 11:07:24;;;;;;;25.83;5.93;;;12.30;99.90;;;;;;5014306;28;20052;-43
2022/05/03 11:09:50;;;;;;;19.63;5.43;;;12.30;99.80;;;;;;5014146;28;20048;-43
2022/05/03 11:12:17;;;;;;;17.75;5.03;;;12.40;99.40;;;;;;5013670;28;20491;-43
2022/05/03 11:14:53;;;;;;;19.38;5.15;;;12.40;99.10;;;;;;5009691;28;20054;-43
2022/05/03 11:17:20;;;;;;;24.80;4.85;;;12.50;99.20;;;;;;5012773;28;20046;-43
2022/05/03 11:19:53;;;;;;;20.00;5.53;;;12.60;98.80;;;;;;5012921;28;20075;-44
2022/05/03 11:22:20;;;;;;;16.00;5.30;;;12.70;98.70;;;;;;5012947;28;20124;-44
2022/05/03 11:24:48;;;;;;;22.75;5.30;;;12.80;98.40;;;;;;5014265;28;20049;-43
2022/05/03 11:27:16;;;;;;;19.65;4.75;;;13.00;98.00;;;;;;5012709;28;20068;-43
2022/05/03 11:29:45;;;;;;;19.77;5.05;;;13.00;97.90;;;;;;5004105;28;20053;-43
2022/05/03 11:32:12;;;;;;;24.85;4.85;;;13.00;97.30;;;;;;5013654;28;20529;-43
2022/05/03 11:34:39;;;;;;;17.90;4.65;;;13.20;97.40;;;;;;5009373;28;20115;-43
2022/05/03 11:37:08;;;;;;;16.98;4.68;;;13.20;97.30;;;;;;5009866;28;20562;-43
2022/05/03 11:39:35;;;;;;;15.73;4.00;;;13.30;96.90;;;;;;5013041;28;20086;-43
2022/05/03 11:42:02;;;;;;;14.23;4.03;;;13.40;96.50;;;;;;5009323;28;20057;-42
2022/05/03 11:44:29;;;;;;;15.68;4.60;;;13.40;96.10;;;;;;5004894;28;20077;-42
2022/05/03 11:46:56;;;;;;;15.15;4.13;;;13.50;96.10;;;;;;5011648;28;20062;-43
2022/05/03 11:49:22;;;;;;;14.38;3.65;;;13.60;95.90;;;;;;5009123;28;20495;-42
2022/05/03 11:57:21;;;;;;;16.35;3.70;;;13.70;95.10;;;;;;5006849;28;20579;-43
2022/05/03 11:59:49;;;;;;;11.20;3.40;;;13.80;95.10;;;;;;5013137;28;20056;-43
2022/05/03 12:02:18;;;;;;;14.02;3.17;;;13.90;95.10;;;;;;5005321;28;20504;-43
2022/05/03 12:05:02;;;;;;;16.65;3.78;;;14.10;94.60;;;;;;5012988;28;20072;-44
2022/05/03 12:07:28;;;;;;;12.93;3.47;;;14.30;93.80;;;;;;5006562;28;20096;-42
2022/05/03 12:09:56;;;;;;;12.13;3.17;;;14.40;94.10;;;;;;5011853;28;20505;-42
2022/05/03 12:15:20;;;;;;;10.35;3.45;;;14.40;92.60;;;;;;5012811;28;20050;-43
2022/05/03 12:17:59;;;;;;;11.55;3.50;;;14.60;92.60;;;;;;5012623;28;20441;-43
2022/05/03 12:20:26;;;;;;;15.40;3.33;;;14.70;92.90;;;;;;5012897;28;20085;-44
2022/05/03 12:23:15;;;;;;;11.48;3.00;;;14.80;92.60;;;;;;5011750;28;20053;-42
2022/05/03 12:25:43;;;;;;;16.30;2.90;;;15.00;91.90;;;;;;5005092;28;20088;-42
2022/05/03 12:28:10;;;;;;;10.77;2.85;;;15.10;91.60;;;;;;5012714;28;20056;-42
2022/05/03 12:30:36;;;;;;;11.52;3.28;;;15.20;90.90;;;;;;5006103;28;20046;-43
2022/05/03 12:33:04;;;;;;;11.05;3.22;;;15.30;90.50;;;;;;5011549;28;20056;-43
2022/05/03 12:35:31;;;;;;;10.18;2.88;;;15.40;90.40;;;;;;5009071;28;20100;-42
2022/05/03 12:37:58;;;;;;;9.25;2.60;;;15.50;89.20;;;;;;5010003;28;20097;-43
2022/05/03 12:40:26;;;;;;;14.38;3.08;;;15.50;88.40;;;;;;5005744;28;20054;-43
2022/05/03 12:42:54;;;;;;;10.13;2.38;;;15.50;89.00;;;;;;5012078;28;20081;-42
2022/05/03 12:45:29;;;;;;;8.02;2.72;;;15.60;88.80;;;;;;5011557;28;20049;-42
2022/05/03 12:47:56;;;;;;;11.75;2.92;;;15.60;87.70;;;;;;5012276;28;20049;-42
2022/05/03 12:50:22;;;;;;;14.05;2.67;;;15.60;87.70;;;;;;5039284;28;20493;-42
2022/05/03 12:52:49;;;;;;;16.58;2.90;;;15.60;87.50;;;;;;5004609;28;20152;-43
2022/05/03 12:55:19;;;;;;;15.45;3.10;;;15.70;87.40;;;;;;5011989;28;20395;-43
2022/05/03 13:00:32;;;;;;;10.75;2.35;;;15.80;85.60;;;;;;5012022;28;20478;-43
2022/05/03 13:03:01;;;;;;;10.38;2.50;;;15.70;84.80;;;;;;5010746;28;20056;-41
2022/05/03 13:05:27;;;;;;;10.63;2.70;;;15.60;84.80;;;;;;5011090;28;20046;-42
2022/05/03 13:07:54;;;;;;;9.43;2.70;;;15.40;85.00;;;;;;5007682;28;20116;-43
2022/05/03 13:10:21;;;;;;;7.78;2.17;;;15.40;85.40;;;;;;5007324;28;20483;-42
2022/05/03 13:12:48;;;;;;;12.38;2.90;;;15.50;85.50;;;;;;5008071;28;20269;-42
2022/05/03 13:15:14;;;;;;;4.50;2.13;;;15.60;84.30;;;;;;5008970;28;20402;-42
2022/05/03 13:17:42;;;;;;;10.80;2.45;;;15.70;85.80;;;;;;5004082;28;20056;-42
2022/05/03 13:20:12;;;;;;;8.93;2.00;;;15.80;83.60;;;;;;5012093;28;20054;-43
2022/05/03 13:22:39;;;;;;;14.43;2.70;;;15.80;84.00;;;;;;5011585;28;20045;-42
2022/05/03 13:25:07;;;;;;;9.77;2.53;;;15.90;83.10;;;;;;5010925;28;20433;-43
2022/05/03 13:27:33;;;;;;;9.23;2.53;;;15.80;83.50;;;;;;5012110;28;20229;-43
2022/05/03 13:30:00;;;;;;;7.38;2.10;;;15.90;83.00;;;;;;5002065;28;20050;-42
2022/05/03 13:32:28;;;;;;;9.25;2.33;;;15.90;82.60;;;;;;5010987;28;20060;-43
2022/05/03 13:34:56;;;;;;;11.63;2.53;;;16.00;82.30;;;;;;5008917;28;20056;-43